sensor_id;sensor_type;location;lat;lon;timestamp;temperature;humidity
3298;DHT22;1661;53.572;10.174;2022-10-15T00:01:05;15.70;90.90
3298;DHT22;1661;53.572;10.174;2022-10-15T00:03:35;15.80;91.00
3298;DHT22;1661;53.572;10.174;2022-10-15T00:06:04;15.80;90.80
3298;DHT22;1661;53.572;10.174;2022-10-15T00:08:32;15.80;90.80
3298;DHT22;1661;53.572;10.174;2022-10-15T00:11:04;15.80;91.00
3298;DHT22;1661;53.572;10.174;2022-10-15T00:13:31;15.80;91.00
3298;DHT22;1661;53.572;10.174;2022-10-15T00:15:58;15.80;90.90
3298;DHT22;1661;53.572;10.174;2022-10-15T00:18:26;15.80;90.90
3298;DHT22;1661;53.572;10.174;2022-10-15T00:20:52;15.80;91.10
3298;DHT22;1661;53.572;10.174;2022-10-15T00:23:19;15.80;91.10
3298;DHT22;1661;53.572;10.174;2022-10-15T00:25:48;15.80;91.30
3298;DHT22;1661;53.572;10.174;2022-10-15T00:28:16;15.80;91.40
3298;DHT22;1661;53.572;10.174;2022-10-15T00:30:42;15.80;91.30
3298;DHT22;1661;53.572;10.174;2022-10-15T00:33:09;15.90;91.20
3298;DHT22;1661;53.572;10.174;2022-10-15T00:35:36;15.90;91.20
3298;DHT22;1661;53.572;10.174;2022-10-15T00:38:02;15.80;91.50
3298;DHT22;1661;53.572;10.174;2022-10-15T00:40:29;15.80;91.70
3298;DHT22;1661;53.572;10.174;2022-10-15T00:42:57;15.90;91.70
3298;DHT22;1661;53.572;10.174;2022-10-15T00:45:24;15.90;91.70
3298;DHT22;1661;53.572;10.174;2022-10-15T00:47:52;15.90;91.60
3298;DHT22;1661;53.572;10.174;2022-10-15T00:50:21;16.00;91.60
3298;DHT22;1661;53.572;10.174;2022-10-15T00:52:58;16.00;91.70
3298;DHT22;1661;53.572;10.174;2022-10-15T00:55:28;16.00;91.80
3298;DHT22;1661;53.572;10.174;2022-10-15T00:57:59;16.00;91.80
3298;DHT22;1661;53.572;10.174;2022-10-15T01:00:28;16.00;91.90
3298;DHT22;1661;53.572;10.174;2022-10-15T01:02:55;16.00;92.00
3298;DHT22;1661;53.572;10.174;2022-10-15T01:05:22;16.00;92.00
3298;DHT22;1661;53.572;10.174;2022-10-15T01:07:49;16.00;92.00
3298;DHT22;1661;53.572;10.174;2022-10-15T01:10:17;16.00;92.10
3298;DHT22;1661;53.572;10.174;2022-10-15T01:12:54;16.00;92.10
3298;DHT22;1661;53.572;10.174;2022-10-15T01:15:26;16.00;92.20
3298;DHT22;1661;53.572;10.174;2022-10-15T01:17:58;16.00;92.10
3298;DHT22;1661;53.572;10.174;2022-10-15T01:20:50;16.00;92.10
3298;DHT22;1661;53.572;10.174;2022-10-15T01:23:43;16.00;92.30
3298;DHT22;1661;53.572;10.174;2022-10-15T01:26:32;16.00;92.30
3298;DHT22;1661;53.572;10.174;2022-10-15T01:29:10;16.00;92.40
3298;DHT22;1661;53.572;10.174;2022-10-15T01:31:45;16.00;92.40
3298;DHT22;1661;53.572;10.174;2022-10-15T01:34:19;16.00;92.50
3298;DHT22;1661;53.572;10.174;2022-10-15T01:36:53;15.90;92.40
3298;DHT22;1661;53.572;10.174;2022-10-15T01:39:26;15.90;92.50
3298;DHT22;1661;53.572;10.174;2022-10-15T01:41:56;15.90;92.40
3298;DHT22;1661;53.572;10.174;2022-10-15T01:44:29;15.90;92.40
3298;DHT22;1661;53.572;10.174;2022-10-15T01:47:02;15.90;92.40
3298;DHT22;1661;53.572;10.174;2022-10-15T01:49:31;15.90;92.40
3298;DHT22;1661;53.572;10.174;2022-10-15T01:52:04;15.90;92.10
3298;DHT22;1661;53.572;10.174;2022-10-15T01:54:32;15.80;92.30
3298;DHT22;1661;53.572;10.174;2022-10-15T01:57:00;15.90;92.20
3298;DHT22;1661;53.572;10.174;2022-10-15T01:59:30;15.90;92.00
3298;DHT22;1661;53.572;10.174;2022-10-15T02:01:59;15.90;91.90
3298;DHT22;1661;53.572;10.174;2022-10-15T02:04:28;15.90;91.80
3298;DHT22;1661;53.572;10.174;2022-10-15T02:06:59;15.90;91.60
3298;DHT22;1661;53.572;10.174;2022-10-15T02:09:36;15.90;91.50
3298;DHT22;1661;53.572;10.174;2022-10-15T02:12:11;15.90;91.30
3298;DHT22;1661;53.572;10.174;2022-10-15T02:14:49;15.80;91.20
3298;DHT22;1661;53.572;10.174;2022-10-15T02:17:23;15.80;91.00
3298;DHT22;1661;53.572;10.174;2022-10-15T02:19:55;15.80;90.80
3298;DHT22;1661;53.572;10.174;2022-10-15T02:22:26;15.80;90.60
3298;DHT22;1661;53.572;10.174;2022-10-15T02:25:02;15.80;90.40
3298;DHT22;1661;53.572;10.174;2022-10-15T02:27:30;15.70;90.30
3298;DHT22;1661;53.572;10.174;2022-10-15T02:30:01;15.70;90.10
3298;DHT22;1661;53.572;10.174;2022-10-15T02:32:31;15.70;90.00
3298;DHT22;1661;53.572;10.174;2022-10-15T02:34:59;15.70;89.90
3298;DHT22;1661;53.572;10.174;2022-10-15T02:37:28;15.60;89.90
3298;DHT22;1661;53.572;10.174;2022-10-15T02:39:56;15.60;89.90
3298;DHT22;1661;53.572;10.174;2022-10-15T02:42:23;15.60;89.80
3298;DHT22;1661;53.572;10.174;2022-10-15T02:44:50;15.50;89.70
3298;DHT22;1661;53.572;10.174;2022-10-15T02:47:16;15.50;89.80
3298;DHT22;1661;53.572;10.174;2022-10-15T02:49:45;15.50;89.80
3298;DHT22;1661;53.572;10.174;2022-10-15T02:52:11;15.50;89.70
3298;DHT22;1661;53.572;10.174;2022-10-15T02:54:38;15.50;89.60
3298;DHT22;1661;53.572;10.174;2022-10-15T02:57:05;15.50;89.50
3298;DHT22;1661;53.572;10.174;2022-10-15T02:59:31;15.50;89.50
3298;DHT22;1661;53.572;10.174;2022-10-15T03:01:58;15.40;89.20
3298;DHT22;1661;53.572;10.174;2022-10-15T03:04:25;15.40;89.40
3298;DHT22;1661;53.572;10.174;2022-10-15T03:06:53;15.50;89.40
3298;DHT22;1661;53.572;10.174;2022-10-15T03:09:19;15.50;89.00
3298;DHT22;1661;53.572;10.174;2022-10-15T03:11:46;15.50;88.90
3298;DHT22;1661;53.572;10.174;2022-10-15T03:14:13;15.50;88.80
3298;DHT22;1661;53.572;10.174;2022-10-15T03:16:40;15.50;88.70
3298;DHT22;1661;53.572;10.174;2022-10-15T03:19:06;15.50;88.30
3298;DHT22;1661;53.572;10.174;2022-10-15T03:21:33;15.50;88.10
3298;DHT22;1661;53.572;10.174;2022-10-15T03:24:01;15.40;87.90
3298;DHT22;1661;53.572;10.174;2022-10-15T03:26:28;15.40;87.70
3298;DHT22;1661;53.572;10.174;2022-10-15T03:28:55;15.30;87.90
3298;DHT22;1661;53.572;10.174;2022-10-15T03:31:21;15.20;88.20
3298;DHT22;1661;53.572;10.174;2022-10-15T03:33:48;15.20;88.30
3298;DHT22;1661;53.572;10.174;2022-10-15T03:36:15;15.30;88.20
3298;DHT22;1661;53.572;10.174;2022-10-15T03:38:42;15.20;88.10
3298;DHT22;1661;53.572;10.174;2022-10-15T03:41:10;15.30;88.10
3298;DHT22;1661;53.572;10.174;2022-10-15T03:43:37;15.30;87.80
3298;DHT22;1661;53.572;10.174;2022-10-15T03:46:04;15.20;87.60
3298;DHT22;1661;53.572;10.174;2022-10-15T03:48:31;15.30;87.30
3298;DHT22;1661;53.572;10.174;2022-10-15T03:50:57;15.30;87.30
3298;DHT22;1661;53.572;10.174;2022-10-15T03:53:24;15.20;87.30
3298;DHT22;1661;53.572;10.174;2022-10-15T03:55:51;15.20;87.20
3298;DHT22;1661;53.572;10.174;2022-10-15T03:58:19;15.20;87.00
3298;DHT22;1661;53.572;10.174;2022-10-15T04:00:46;15.20;86.90
3298;DHT22;1661;53.572;10.174;2022-10-15T04:03:13;15.20;86.60
3298;DHT22;1661;53.572;10.174;2022-10-15T04:05:40;15.20;86.50
3298;DHT22;1661;53.572;10.174;2022-10-15T04:08:07;15.20;86.40
3298;DHT22;1661;53.572;10.174;2022-10-15T04:10:33;15.20;86.40
3298;DHT22;1661;53.572;10.174;2022-10-15T04:13:00;15.20;86.10
3298;DHT22;1661;53.572;10.174;2022-10-15T04:15:28;15.20;85.80
3298;DHT22;1661;53.572;10.174;2022-10-15T04:17:55;15.20;85.40
3298;DHT22;1661;53.572;10.174;2022-10-15T04:20:22;15.20;85.20
3298;DHT22;1661;53.572;10.174;2022-10-15T04:22:49;15.20;85.10
3298;DHT22;1661;53.572;10.174;2022-10-15T04:25:15;15.20;85.00
3298;DHT22;1661;53.572;10.174;2022-10-15T04:27:42;15.20;84.90
3298;DHT22;1661;53.572;10.174;2022-10-15T04:30:10;15.10;84.70
3298;DHT22;1661;53.572;10.174;2022-10-15T04:32:38;15.10;84.80
3298;DHT22;1661;53.572;10.174;2022-10-15T04:35:06;15.10;85.30
3298;DHT22;1661;53.572;10.174;2022-10-15T04:37:33;15.10;85.10
3298;DHT22;1661;53.572;10.174;2022-10-15T04:40:00;15.10;85.10
3298;DHT22;1661;53.572;10.174;2022-10-15T04:42:27;15.00;85.20
3298;DHT22;1661;53.572;10.174;2022-10-15T04:44:55;15.00;85.60
3298;DHT22;1661;53.572;10.174;2022-10-15T04:47:21;15.00;86.10
3298;DHT22;1661;53.572;10.174;2022-10-15T04:49:49;15.00;86.20
3298;DHT22;1661;53.572;10.174;2022-10-15T04:52:16;15.00;86.40
3298;DHT22;1661;53.572;10.174;2022-10-15T04:54:43;15.00;86.50
3298;DHT22;1661;53.572;10.174;2022-10-15T04:57:09;14.90;86.60
3298;DHT22;1661;53.572;10.174;2022-10-15T04:59:36;14.90;86.80
3298;DHT22;1661;53.572;10.174;2022-10-15T05:02:03;14.90;87.00
3298;DHT22;1661;53.572;10.174;2022-10-15T05:04:29;14.90;87.20
3298;DHT22;1661;53.572;10.174;2022-10-15T05:06:57;14.80;87.50
3298;DHT22;1661;53.572;10.174;2022-10-15T05:09:24;14.80;87.70
3298;DHT22;1661;53.572;10.174;2022-10-15T05:11:51;14.80;87.80
3298;DHT22;1661;53.572;10.174;2022-10-15T05:14:19;14.80;87.90
3298;DHT22;1661;53.572;10.174;2022-10-15T05:16:46;14.90;88.00
3298;DHT22;1661;53.572;10.174;2022-10-15T05:19:13;14.90;88.10
3298;DHT22;1661;53.572;10.174;2022-10-15T05:21:41;14.90;88.10
3298;DHT22;1661;53.572;10.174;2022-10-15T05:24:09;14.80;88.10
3298;DHT22;1661;53.572;10.174;2022-10-15T05:26:36;14.80;88.10
3298;DHT22;1661;53.572;10.174;2022-10-15T05:29:03;14.80;88.10
3298;DHT22;1661;53.572;10.174;2022-10-15T05:31:31;14.80;88.10
3298;DHT22;1661;53.572;10.174;2022-10-15T05:33:59;14.70;88.00
3298;DHT22;1661;53.572;10.174;2022-10-15T05:36:30;14.70;88.10
3298;DHT22;1661;53.572;10.174;2022-10-15T05:38:59;14.70;88.20
3298;DHT22;1661;53.572;10.174;2022-10-15T05:41:28;14.70;88.10
3298;DHT22;1661;53.572;10.174;2022-10-15T05:43:57;14.70;88.10
3298;DHT22;1661;53.572;10.174;2022-10-15T05:46:24;14.70;88.00
3298;DHT22;1661;53.572;10.174;2022-10-15T05:48:52;14.70;87.80
3298;DHT22;1661;53.572;10.174;2022-10-15T05:51:19;14.70;87.80
3298;DHT22;1661;53.572;10.174;2022-10-15T05:53:46;14.60;87.70
3298;DHT22;1661;53.572;10.174;2022-10-15T05:56:13;14.60;87.80
3298;DHT22;1661;53.572;10.174;2022-10-15T05:58:41;14.60;87.90
3298;DHT22;1661;53.572;10.174;2022-10-15T06:01:10;14.60;87.80
3298;DHT22;1661;53.572;10.174;2022-10-15T06:03:37;14.60;87.70
3298;DHT22;1661;53.572;10.174;2022-10-15T06:06:07;14.50;87.60
3298;DHT22;1661;53.572;10.174;2022-10-15T06:08:38;14.50;87.80
3298;DHT22;1661;53.572;10.174;2022-10-15T06:11:05;14.50;87.70
3298;DHT22;1661;53.572;10.174;2022-10-15T06:13:31;14.50;87.80
3298;DHT22;1661;53.572;10.174;2022-10-15T06:16:02;14.50;87.70
3298;DHT22;1661;53.572;10.174;2022-10-15T06:18:28;14.40;87.60
3298;DHT22;1661;53.572;10.174;2022-10-15T06:20:55;14.40;87.70
3298;DHT22;1661;53.572;10.174;2022-10-15T06:23:22;14.40;87.80
3298;DHT22;1661;53.572;10.174;2022-10-15T06:25:49;14.40;87.60
3298;DHT22;1661;53.572;10.174;2022-10-15T06:28:16;14.30;87.70
3298;DHT22;1661;53.572;10.174;2022-10-15T06:30:43;14.20;87.80
3298;DHT22;1661;53.572;10.174;2022-10-15T06:33:11;14.30;88.00
3298;DHT22;1661;53.572;10.174;2022-10-15T06:35:37;14.30;88.10
3298;DHT22;1661;53.572;10.174;2022-10-15T06:38:05;14.40;87.80
3298;DHT22;1661;53.572;10.174;2022-10-15T06:40:32;14.40;87.70
3298;DHT22;1661;53.572;10.174;2022-10-15T06:43:03;14.50;87.50
3298;DHT22;1661;53.572;10.174;2022-10-15T06:45:31;14.50;87.50
3298;DHT22;1661;53.572;10.174;2022-10-15T06:47:58;14.50;87.50
3298;DHT22;1661;53.572;10.174;2022-10-15T06:50:26;14.60;87.40
3298;DHT22;1661;53.572;10.174;2022-10-15T06:52:53;14.60;87.20
3298;DHT22;1661;53.572;10.174;2022-10-15T06:55:20;14.70;86.90
3298;DHT22;1661;53.572;10.174;2022-10-15T06:57:47;14.70;86.80
3298;DHT22;1661;53.572;10.174;2022-10-15T07:00:14;14.70;86.70
3298;DHT22;1661;53.572;10.174;2022-10-15T07:02:41;14.80;86.80
3298;DHT22;1661;53.572;10.174;2022-10-15T07:05:08;14.80;86.80
3298;DHT22;1661;53.572;10.174;2022-10-15T07:07:36;14.90;86.80
3298;DHT22;1661;53.572;10.174;2022-10-15T07:10:04;14.90;86.70
3298;DHT22;1661;53.572;10.174;2022-10-15T07:12:31;15.00;86.60
3298;DHT22;1661;53.572;10.174;2022-10-15T07:14:57;15.00;86.60
3298;DHT22;1661;53.572;10.174;2022-10-15T07:17:24;15.10;86.60
3298;DHT22;1661;53.572;10.174;2022-10-15T07:19:51;15.10;86.50
3298;DHT22;1661;53.572;10.174;2022-10-15T07:22:17;15.10;86.50
3298;DHT22;1661;53.572;10.174;2022-10-15T07:24:45;15.10;86.40
3298;DHT22;1661;53.572;10.174;2022-10-15T07:27:12;15.00;86.40
3298;DHT22;1661;53.572;10.174;2022-10-15T07:29:39;15.00;86.50
3298;DHT22;1661;53.572;10.174;2022-10-15T07:32:05;15.00;86.70
3298;DHT22;1661;53.572;10.174;2022-10-15T07:34:32;15.00;86.40
3298;DHT22;1661;53.572;10.174;2022-10-15T07:36:59;15.00;86.30
3298;DHT22;1661;53.572;10.174;2022-10-15T07:39:26;15.00;86.30
3298;DHT22;1661;53.572;10.174;2022-10-15T07:41:54;15.10;86.10
3298;DHT22;1661;53.572;10.174;2022-10-15T07:44:20;15.10;86.10
3298;DHT22;1661;53.572;10.174;2022-10-15T07:46:47;15.10;85.90
3298;DHT22;1661;53.572;10.174;2022-10-15T07:49:14;15.20;85.80
3298;DHT22;1661;53.572;10.174;2022-10-15T07:51:41;15.20;85.70
3298;DHT22;1661;53.572;10.174;2022-10-15T07:54:08;15.20;85.70
3298;DHT22;1661;53.572;10.174;2022-10-15T07:56:34;15.20;85.60
3298;DHT22;1661;53.572;10.174;2022-10-15T07:59:02;15.20;85.70
3298;DHT22;1661;53.572;10.174;2022-10-15T08:01:29;15.10;85.80
3298;DHT22;1661;53.572;10.174;2022-10-15T08:03:56;15.10;85.90
3298;DHT22;1661;53.572;10.174;2022-10-15T08:06:23;15.10;85.80
3298;DHT22;1661;53.572;10.174;2022-10-15T08:08:49;15.10;85.70
3298;DHT22;1661;53.572;10.174;2022-10-15T08:11:16;15.00;86.00
3298;DHT22;1661;53.572;10.174;2022-10-15T08:13:43;15.00;86.00
3298;DHT22;1661;53.572;10.174;2022-10-15T08:16:14;15.00;86.30
3298;DHT22;1661;53.572;10.174;2022-10-15T08:18:43;15.00;86.40
3298;DHT22;1661;53.572;10.174;2022-10-15T08:21:10;15.10;86.40
3298;DHT22;1661;53.572;10.174;2022-10-15T08:23:37;15.20;85.90
3298;DHT22;1661;53.572;10.174;2022-10-15T08:26:04;15.30;85.60
3298;DHT22;1661;53.572;10.174;2022-10-15T08:28:32;15.30;85.70
3298;DHT22;1661;53.572;10.174;2022-10-15T08:31:00;15.40;85.30
3298;DHT22;1661;53.572;10.174;2022-10-15T08:33:28;15.40;85.30
3298;DHT22;1661;53.572;10.174;2022-10-15T08:35:55;15.50;84.80
3298;DHT22;1661;53.572;10.174;2022-10-15T08:38:22;15.50;84.90
3298;DHT22;1661;53.572;10.174;2022-10-15T08:40:51;15.60;85.10
3298;DHT22;1661;53.572;10.174;2022-10-15T08:43:21;15.70;85.00
3298;DHT22;1661;53.572;10.174;2022-10-15T08:45:52;15.70;84.20
3298;DHT22;1661;53.572;10.174;2022-10-15T08:48:23;15.70;83.80
3298;DHT22;1661;53.572;10.174;2022-10-15T08:50:58;15.60;84.00
3298;DHT22;1661;53.572;10.174;2022-10-15T08:53:27;15.60;84.00
3298;DHT22;1661;53.572;10.174;2022-10-15T08:55:59;15.60;83.90
3298;DHT22;1661;53.572;10.174;2022-10-15T08:58:38;15.70;84.10
3298;DHT22;1661;53.572;10.174;2022-10-15T09:01:13;15.80;83.70
3298;DHT22;1661;53.572;10.174;2022-10-15T09:03:51;15.90;83.90
3298;DHT22;1661;53.572;10.174;2022-10-15T09:06:24;16.20;83.20
3298;DHT22;1661;53.572;10.174;2022-10-15T09:08:58;16.30;81.70
3298;DHT22;1661;53.572;10.174;2022-10-15T09:11:35;16.40;81.30
3298;DHT22;1661;53.572;10.174;2022-10-15T09:14:09;16.50;80.90
3298;DHT22;1661;53.572;10.174;2022-10-15T09:16:38;16.70;80.40
3298;DHT22;1661;53.572;10.174;2022-10-15T09:19:12;16.70;80.20
3298;DHT22;1661;53.572;10.174;2022-10-15T09:21:41;16.70;80.30
3298;DHT22;1661;53.572;10.174;2022-10-15T09:24:10;16.90;80.10
3298;DHT22;1661;53.572;10.174;2022-10-15T09:26:47;17.10;80.10
3298;DHT22;1661;53.572;10.174;2022-10-15T09:29:22;17.30;79.20
3298;DHT22;1661;53.572;10.174;2022-10-15T09:31:55;17.40;78.20
3298;DHT22;1661;53.572;10.174;2022-10-15T09:34:28;17.60;77.50
3298;DHT22;1661;53.572;10.174;2022-10-15T09:37:05;17.70;76.90
3298;DHT22;1661;53.572;10.174;2022-10-15T09:39:46;17.70;76.70
3298;DHT22;1661;53.572;10.174;2022-10-15T09:42:25;17.90;76.60
3298;DHT22;1661;53.572;10.174;2022-10-15T09:44:53;18.20;76.40
3298;DHT22;1661;53.572;10.174;2022-10-15T09:47:25;18.50;75.70
3298;DHT22;1661;53.572;10.174;2022-10-15T09:49:52;18.80;73.60
3298;DHT22;1661;53.572;10.174;2022-10-15T09:52:29;19.00;73.50
3298;DHT22;1661;53.572;10.174;2022-10-15T09:55:06;19.20;73.00
3298;DHT22;1661;53.572;10.174;2022-10-15T09:57:36;19.60;71.80
3298;DHT22;1661;53.572;10.174;2022-10-15T10:00:08;19.80;71.00
3298;DHT22;1661;53.572;10.174;2022-10-15T10:02:37;20.00;69.70
3298;DHT22;1661;53.572;10.174;2022-10-15T10:05:26;20.10;69.60
3298;DHT22;1661;53.572;10.174;2022-10-15T10:08:06;20.20;68.80
3298;DHT22;1661;53.572;10.174;2022-10-15T10:10:33;20.20;68.30
3298;DHT22;1661;53.572;10.174;2022-10-15T10:13:01;20.20;68.70
3298;DHT22;1661;53.572;10.174;2022-10-15T10:15:33;20.10;69.00
3298;DHT22;1661;53.572;10.174;2022-10-15T10:18:00;20.10;69.40
3298;DHT22;1661;53.572;10.174;2022-10-15T10:20:30;20.10;69.10
3298;DHT22;1661;53.572;10.174;2022-10-15T10:23:00;20.00;69.20
3298;DHT22;1661;53.572;10.174;2022-10-15T10:25:33;19.80;68.90
3298;DHT22;1661;53.572;10.174;2022-10-15T10:28:14;19.70;70.10
3298;DHT22;1661;53.572;10.174;2022-10-15T10:30:52;19.80;70.50
3298;DHT22;1661;53.572;10.174;2022-10-15T10:33:27;19.90;70.60
3298;DHT22;1661;53.572;10.174;2022-10-15T10:35:55;20.00;69.80
3298;DHT22;1661;53.572;10.174;2022-10-15T10:38:26;19.90;69.10
3298;DHT22;1661;53.572;10.174;2022-10-15T10:40:55;19.90;69.00
3298;DHT22;1661;53.572;10.174;2022-10-15T10:43:26;20.10;69.10
3298;DHT22;1661;53.572;10.174;2022-10-15T10:45:55;20.20;68.60
3298;DHT22;1661;53.572;10.174;2022-10-15T10:48:24;20.50;69.20
3298;DHT22;1661;53.572;10.174;2022-10-15T10:51:07;20.70;67.50
3298;DHT22;1661;53.572;10.174;2022-10-15T10:53:41;20.80;66.70
3298;DHT22;1661;53.572;10.174;2022-10-15T10:56:11;21.00;67.10
3298;DHT22;1661;53.572;10.174;2022-10-15T10:58:40;21.20;65.80
3298;DHT22;1661;53.572;10.174;2022-10-15T11:01:10;21.20;64.80
3298;DHT22;1661;53.572;10.174;2022-10-15T11:03:39;21.30;64.20
3298;DHT22;1661;53.572;10.174;2022-10-15T11:06:27;21.40;64.70
3298;DHT22;1661;53.572;10.174;2022-10-15T11:09:10;21.60;63.70
3298;DHT22;1661;53.572;10.174;2022-10-15T11:11:47;21.70;63.20
3298;DHT22;1661;53.572;10.174;2022-10-15T11:14:24;21.80;63.40
3298;DHT22;1661;53.572;10.174;2022-10-15T11:16:59;21.80;62.90
3298;DHT22;1661;53.572;10.174;2022-10-15T11:19:33;21.90;63.00
3298;DHT22;1661;53.572;10.174;2022-10-15T11:25:00;21.60;62.80
3298;DHT22;1661;53.572;10.174;2022-10-15T11:27:45;21.60;62.40
3298;DHT22;1661;53.572;10.174;2022-10-15T11:30:26;21.60;62.20
3298;DHT22;1661;53.572;10.174;2022-10-15T11:32:59;21.70;62.60
3298;DHT22;1661;53.572;10.174;2022-10-15T11:35:39;21.90;63.00
3298;DHT22;1661;53.572;10.174;2022-10-15T11:38:15;22.10;62.10
3298;DHT22;1661;53.572;10.174;2022-10-15T11:40:51;22.40;61.80
3298;DHT22;1661;53.572;10.174;2022-10-15T11:43:46;22.40;59.70
3298;DHT22;1661;53.572;10.174;2022-10-15T11:46:21;22.30;60.80
3298;DHT22;1661;53.572;10.174;2022-10-15T11:49:02;22.40;59.30
3298;DHT22;1661;53.572;10.174;2022-10-15T11:51:42;22.50;58.70
3298;DHT22;1661;53.572;10.174;2022-10-15T11:54:22;22.50;58.20
3298;DHT22;1661;53.572;10.174;2022-10-15T11:56:55;22.60;58.20
3298;DHT22;1661;53.572;10.174;2022-10-15T11:59:31;22.60;57.70
3298;DHT22;1661;53.572;10.174;2022-10-15T12:02:02;22.40;58.10
3298;DHT22;1661;53.572;10.174;2022-10-15T12:04:35;22.30;59.20
3298;DHT22;1661;53.572;10.174;2022-10-15T12:07:06;22.20;59.20
3298;DHT22;1661;53.572;10.174;2022-10-15T12:09:35;22.00;59.80
3298;DHT22;1661;53.572;10.174;2022-10-15T12:12:07;21.80;60.50
3298;DHT22;1661;53.572;10.174;2022-10-15T12:14:40;21.80;61.70
3298;DHT22;1661;53.572;10.174;2022-10-15T12:17:15;21.60;62.10
3298;DHT22;1661;53.572;10.174;2022-10-15T12:19:47;21.40;62.60
3298;DHT22;1661;53.572;10.174;2022-10-15T12:22:31;21.20;63.30
3298;DHT22;1661;53.572;10.174;2022-10-15T12:24:58;21.40;63.10
3298;DHT22;1661;53.572;10.174;2022-10-15T12:27:31;21.60;62.60
3298;DHT22;1661;53.572;10.174;2022-10-15T12:30:18;21.70;61.50
3298;DHT22;1661;53.572;10.174;2022-10-15T12:32:46;21.80;60.80
3298;DHT22;1661;53.572;10.174;2022-10-15T12:35:20;21.80;60.70
3298;DHT22;1661;53.572;10.174;2022-10-15T12:37:48;21.70;61.20
3298;DHT22;1661;53.572;10.174;2022-10-15T12:40:27;21.90;61.00
3298;DHT22;1661;53.572;10.174;2022-10-15T12:42:58;22.10;61.10
3298;DHT22;1661;53.572;10.174;2022-10-15T12:45:31;22.40;60.40
3298;DHT22;1661;53.572;10.174;2022-10-15T12:48:18;22.60;59.30
3298;DHT22;1661;53.572;10.174;2022-10-15T12:50:45;22.80;57.60
3298;DHT22;1661;53.572;10.174;2022-10-15T12:53:29;22.90;58.10
3298;DHT22;1661;53.572;10.174;2022-10-15T12:56:19;23.00;58.10
3298;DHT22;1661;53.572;10.174;2022-10-15T12:58:49;23.10;56.20
3298;DHT22;1661;53.572;10.174;2022-10-15T13:01:49;23.20;56.40
3298;DHT22;1661;53.572;10.174;2022-10-15T13:04:16;23.10;55.10
3298;DHT22;1661;53.572;10.174;2022-10-15T13:06:44;22.70;56.60
3298;DHT22;1661;53.572;10.174;2022-10-15T13:09:26;22.50;57.20
3298;DHT22;1661;53.572;10.174;2022-10-15T13:11:55;22.50;57.80
3298;DHT22;1661;53.572;10.174;2022-10-15T13:14:28;22.50;57.80
3298;DHT22;1661;53.572;10.174;2022-10-15T13:16:57;22.40;58.20
3298;DHT22;1661;53.572;10.174;2022-10-15T13:19:27;22.20;57.70
3298;DHT22;1661;53.572;10.174;2022-10-15T13:21:56;22.00;58.00
3298;DHT22;1661;53.572;10.174;2022-10-15T13:24:24;21.90;58.60
3298;DHT22;1661;53.572;10.174;2022-10-15T13:26:53;21.60;59.00
3298;DHT22;1661;53.572;10.174;2022-10-15T13:29:21;21.50;59.70
3298;DHT22;1661;53.572;10.174;2022-10-15T13:31:51;21.30;60.30
3298;DHT22;1661;53.572;10.174;2022-10-15T13:34:24;21.20;60.50
3298;DHT22;1661;53.572;10.174;2022-10-15T13:36:52;21.10;61.00
3298;DHT22;1661;53.572;10.174;2022-10-15T13:39:27;20.90;61.50
3298;DHT22;1661;53.572;10.174;2022-10-15T13:42:06;20.90;62.20
3298;DHT22;1661;53.572;10.174;2022-10-15T13:44:33;20.80;62.50
3298;DHT22;1661;53.572;10.174;2022-10-15T13:47:02;20.80;63.50
3298;DHT22;1661;53.572;10.174;2022-10-15T13:49:29;20.80;63.80
3298;DHT22;1661;53.572;10.174;2022-10-15T13:51:57;20.70;62.80
3298;DHT22;1661;53.572;10.174;2022-10-15T13:54:27;20.50;62.50
3298;DHT22;1661;53.572;10.174;2022-10-15T13:56:57;20.40;63.80
3298;DHT22;1661;53.572;10.174;2022-10-15T13:59:26;20.20;63.90
3298;DHT22;1661;53.572;10.174;2022-10-15T14:01:56;20.10;64.20
3298;DHT22;1661;53.572;10.174;2022-10-15T14:04:27;20.10;64.70
3298;DHT22;1661;53.572;10.174;2022-10-15T14:06:56;20.10;65.60
3298;DHT22;1661;53.572;10.174;2022-10-15T14:09:29;20.20;65.60
3298;DHT22;1661;53.572;10.174;2022-10-15T14:11:57;20.30;65.30
3298;DHT22;1661;53.572;10.174;2022-10-15T14:14:29;20.30;65.20
3298;DHT22;1661;53.572;10.174;2022-10-15T14:16:58;20.40;65.20
3298;DHT22;1661;53.572;10.174;2022-10-15T14:19:28;20.50;65.40
3298;DHT22;1661;53.572;10.174;2022-10-15T14:21:56;20.60;65.00
3298;DHT22;1661;53.572;10.174;2022-10-15T14:24:31;20.80;65.20
3298;DHT22;1661;53.572;10.174;2022-10-15T14:27:04;21.00;64.40
3298;DHT22;1661;53.572;10.174;2022-10-15T14:29:37;21.20;64.30
3298;DHT22;1661;53.572;10.174;2022-10-15T14:32:19;21.20;63.20
3298;DHT22;1661;53.572;10.174;2022-10-15T14:34:47;21.00;63.10
3298;DHT22;1661;53.572;10.174;2022-10-15T14:37:29;20.90;64.10
3298;DHT22;1661;53.572;10.174;2022-10-15T14:40:07;20.80;64.00
3298;DHT22;1661;53.572;10.174;2022-10-15T14:42:38;20.60;64.40
3298;DHT22;1661;53.572;10.174;2022-10-15T14:45:12;20.50;64.80
3298;DHT22;1661;53.572;10.174;2022-10-15T14:47:44;20.40;65.00
3298;DHT22;1661;53.572;10.174;2022-10-15T14:50:13;20.20;65.40
3298;DHT22;1661;53.572;10.174;2022-10-15T14:52:43;20.10;66.10
3298;DHT22;1661;53.572;10.174;2022-10-15T14:55:15;20.10;66.50
3298;DHT22;1661;53.572;10.174;2022-10-15T14:57:44;20.10;66.40
3298;DHT22;1661;53.572;10.174;2022-10-15T15:00:16;20.10;67.10
3298;DHT22;1661;53.572;10.174;2022-10-15T15:02:47;20.10;67.00
3298;DHT22;1661;53.572;10.174;2022-10-15T15:05:20;20.10;66.90
3298;DHT22;1661;53.572;10.174;2022-10-15T15:07:47;20.10;67.00
3298;DHT22;1661;53.572;10.174;2022-10-15T15:10:14;20.00;67.20
3298;DHT22;1661;53.572;10.174;2022-10-15T15:12:44;19.90;67.40
3298;DHT22;1661;53.572;10.174;2022-10-15T15:15:13;19.90;68.10
3298;DHT22;1661;53.572;10.174;2022-10-15T15:17:40;19.90;68.20
3298;DHT22;1661;53.572;10.174;2022-10-15T15:20:09;19.90;68.00
3298;DHT22;1661;53.572;10.174;2022-10-15T15:22:39;19.80;68.50
3298;DHT22;1661;53.572;10.174;2022-10-15T15:25:13;19.70;68.40
3298;DHT22;1661;53.572;10.174;2022-10-15T15:27:40;19.70;68.90
3298;DHT22;1661;53.572;10.174;2022-10-15T15:30:14;19.60;69.00
3298;DHT22;1661;53.572;10.174;2022-10-15T15:32:41;19.50;69.50
3298;DHT22;1661;53.572;10.174;2022-10-15T15:35:15;19.40;69.90
3298;DHT22;1661;53.572;10.174;2022-10-15T15:37:45;19.40;70.50
3298;DHT22;1661;53.572;10.174;2022-10-15T15:40:12;19.40;70.70
3298;DHT22;1661;53.572;10.174;2022-10-15T15:42:40;19.30;71.00
3298;DHT22;1661;53.572;10.174;2022-10-15T15:45:16;19.20;71.40
3298;DHT22;1661;53.572;10.174;2022-10-15T15:47:44;19.20;72.50
3298;DHT22;1661;53.572;10.174;2022-10-15T15:50:11;19.20;73.00
3298;DHT22;1661;53.572;10.174;2022-10-15T15:52:38;19.00;73.50
3298;DHT22;1661;53.572;10.174;2022-10-15T15:55:07;19.00;74.20
3298;DHT22;1661;53.572;10.174;2022-10-15T15:57:34;19.10;74.70
3298;DHT22;1661;53.572;10.174;2022-10-15T16:00:01;19.00;75.20
3298;DHT22;1661;53.572;10.174;2022-10-15T16:02:28;19.00;75.70
3298;DHT22;1661;53.572;10.174;2022-10-15T16:04:54;18.90;76.40
3298;DHT22;1661;53.572;10.174;2022-10-15T16:07:21;18.90;76.50